Time;durP1;ratioP1;P1;durP2;ratioP2;P2;SDS_P1;SDS_P2;PMS_P1;PMS_P2;Temp;Humidity;BMP_temperature;BMP_pressure;BME280_temperature;BME280_humidity;BME280_pressure;Samples;Min_cycle;Max_cycle;Signal;HPM_P1;HPM_P2
2022/03/15 00:02:07;;;;;;;;;;;;;;;2.80;59.33;101542.75;4425838;32;19978;-92
2022/03/15 00:04:32;;;;;;;;;;;;;;;2.87;59.35;101540.41;4413985;32;20030;-93
2022/03/15 00:06:58;;;;;;;;;;;;;;;2.89;59.35;101533.59;4413609;32;20224;-92
2022/03/15 00:09:24;;;;;;;;;;;;;;;2.77;59.34;101535.81;4426528;32;20014;-92
2022/03/15 00:11:49;;;;;;;;;;;;;;;2.70;59.33;101528.75;4413333;32;20018;-92
2022/03/15 00:14:15;;;;;;;;;;;;;;;2.76;59.34;101529.81;4426435;32;20376;-92
2022/03/15 00:16:41;;;;;;;;;;;;;;;2.81;59.35;101526.47;4425922;32;20016;-92
2022/03/15 00:19:07;;;;;;;;;;;;;;;2.77;59.34;101533.25;4424462;32;19998;-89
2022/03/15 00:21:32;;;;;;;;;;;;;;;2.66;59.34;101529.50;4412240;32;19997;-89
2022/03/15 00:23:58;;;;;;;;;;;;;;;2.54;59.32;101516.28;4426049;32;19996;-87
2022/03/15 00:26:24;;;;;;;;;;;;;;;2.68;59.34;101523.59;4413219;32;19986;-88
2022/03/15 00:28:49;;;;;;;;;;;;;;;2.69;59.33;101515.03;4412888;32;20383;-88
2022/03/15 00:31:14;;;;;;;;;;;;;;;2.78;59.33;101504.13;4425704;32;20000;-88
2022/03/15 00:33:40;;;;;;;;;;;;;;;2.78;59.34;101507.56;4425271;32;27729;-88
2022/03/15 00:36:05;;;;;;;;;;;;;;;2.74;59.34;101510.88;4425819;32;20053;-88
2022/03/15 00:38:30;;;;;;;;;;;;;;;2.73;59.34;101509.16;4412962;32;19989;-87
2022/03/15 00:40:55;;;;;;;;;;;;;;;2.61;59.33;101511.41;4425099;32;28245;-88
2022/03/15 00:43:21;;;;;;;;;;;;;;;2.36;59.32;101514.91;4425870;32;19996;-87
2022/03/15 00:45:46;;;;;;;;;;;;;;;2.49;59.32;101515.28;4439739;32;19993;-86
2022/03/15 00:48:11;;;;;;;;;;;;;;;2.53;59.32;101511.97;4425668;32;19994;-86
2022/03/15 00:50:41;;;;;;;;;;;;;;;2.60;59.33;101519.03;4439539;32;19984;-87
2022/03/15 00:53:06;;;;;;;;;;;;;;;2.54;59.32;101517.16;4438612;32;20036;-87
2022/03/15 00:55:32;;;;;;;;;;;;;;;2.63;59.33;101514.87;4425432;32;20255;-87
2022/03/15 00:57:57;;;;;;;;;;;;;;;2.78;59.33;101517.84;4438517;32;19986;-87
2022/03/15 01:00:22;;;;;;;;;;;;;;;2.87;59.35;101504.41;4438430;32;20271;-86
2022/03/15 01:02:48;;;;;;;;;;;;;;;2.74;59.34;101500.59;4438507;32;20023;-87
2022/03/15 01:05:13;;;;;;;;;;;;;;;2.91;59.34;101500.22;4438493;32;20327;-88
2022/03/15 01:07:38;;;;;;;;;;;;;;;2.80;59.33;101491.31;4438336;32;20358;-87
2022/03/15 01:10:04;;;;;;;;;;;;;;;2.85;59.34;101489.75;4425309;32;20012;-90
2022/03/15 01:12:29;;;;;;;;;;;;;;;2.89;59.35;101474.44;4425904;32;19989;-90
2022/03/15 01:14:54;;;;;;;;;;;;;;;2.87;59.35;101481.25;4425501;32;30517;-90
2022/03/15 01:17:19;;;;;;;;;;;;;;;2.72;59.33;101478.25;4426172;32;22425;-91
2022/03/15 01:19:44;;;;;;;;;;;;;;;2.66;59.33;101481.53;4426964;32;20327;-91
2022/03/15 01:22:10;;;;;;;;;;;;;;;2.83;59.34;101465.69;4426292;32;19973;-91
2022/03/15 01:24:35;;;;;;;;;;;;;;;2.80;59.33;101473.31;4426361;32;20016;-91
2022/03/15 01:27:01;;;;;;;;;;;;;;;2.67;59.34;101473.00;4426547;32;20019;-91
2022/03/15 01:29:26;;;;;;;;;;;;;;;2.80;59.35;101458.75;4426467;32;20348;-91
2022/03/15 01:31:51;;;;;;;;;;;;;;;2.72;59.33;101467.97;4425696;32;19977;-91
2022/03/15 01:34:17;;;;;;;;;;;;;;;2.72;59.33;101467.97;4426454;32;20548;-91
2022/03/15 01:36:42;;;;;;;;;;;;;;;2.83;59.35;101460.53;4426388;32;20016;-91
2022/03/15 01:39:07;;;;;;;;;;;;;;;2.87;59.34;101459.81;4426763;32;19996;-91
2022/03/15 01:41:38;;;;;;;;;;;;;;;2.70;59.34;101464.50;4426900;32;20359;-91
2022/03/15 01:44:03;;;;;;;;;;;;;;;2.57;59.32;101462.41;4426990;32;20633;-92
2022/03/15 01:46:29;;;;;;;;;;;;;;;2.60;59.33;101470.19;4427373;32;20038;-92
2022/03/15 01:48:54;;;;;;;;;;;;;;;2.42;59.31;101468.00;4427844;32;19993;-94
2022/03/15 01:51:20;;;;;;;;;;;;;;;2.58;59.34;101475.28;4427788;32;19989;-92
2022/03/15 01:53:45;;;;;;;;;;;;;;;2.53;59.32;101483.72;4428028;32;20044;-93
2022/03/15 01:56:10;;;;;;;;;;;;;;;2.46;59.32;101477.53;4427788;32;20277;-93
2022/03/15 01:58:35;;;;;;;;;;;;;;;2.32;59.32;101479.69;4427742;32;20108;-93
2022/03/15 02:01:01;;;;;;;;;;;;;;;2.41;59.31;101477.41;4427466;32;19973;-93
2022/03/15 02:03:26;;;;;;;;;;;;;;;2.37;59.32;101474.72;4427637;32;20004;-94
2022/03/15 02:05:51;;;;;;;;;;;;;;;2.54;59.33;101470.91;4427457;32;20027;-93
2022/03/15 02:08:17;;;;;;;;;;;;;;;2.62;59.33;101472.00;4426853;32;22425;-93
2022/03/15 02:10:42;;;;;;;;;;;;;;;2.71;59.34;101473.94;4427704;32;19973;-93
2022/03/15 02:13:07;;;;;;;;;;;;;;;2.62;59.33;101466.88;4427661;32;20013;-94
2022/03/15 02:15:33;;;;;;;;;;;;;;;2.46;59.32;101469.81;4427741;32;20001;-93
2022/03/15 02:17:58;;;;;;;;;;;;;;;2.47;59.32;101463.84;4427286;32;19985;-93
2022/03/15 02:20:23;;;;;;;;;;;;;;;2.45;59.33;101463.81;4427179;32;20000;-93
2022/03/15 02:22:49;;;;;;;;;;;;;;;2.43;59.33;101464.59;4427034;32;19997;-93
2022/03/15 02:25:14;;;;;;;;;;;;;;;2.27;59.31;101468.41;4426740;32;20289;-91
2022/03/15 02:27:39;;;;;;;;;;;;;;;2.25;59.31;101464.06;4426350;32;19996;-91
2022/03/15 02:30:06;;;;;;;;;;;;;;;2.21;59.30;101462.22;4426314;32;20224;-91
2022/03/15 02:32:31;;;;;;;;;;;;;;;2.25;59.31;101457.22;4426114;32;19984;-87
2022/03/15 02:34:56;;;;;;;;;;;;;;;2.16;59.30;101467.25;4437841;32;20505;-87
2022/03/15 02:37:21;;;;;;;;;;;;;;;2.30;59.32;101473.63;4424427;32;26134;-87
2022/03/15 02:39:47;;;;;;;;;;;;;;;2.24;59.31;101478.59;4424529;32;19981;-87
2022/03/15 02:42:12;;;;;;;;;;;;;;;2.16;59.30;101474.94;4437670;32;19990;-87
2022/03/15 02:44:37;;;;;;;;;;;;;;;2.02;59.29;101478.78;4436522;32;30415;-87
2022/03/15 02:47:03;;;;;;;;;;;;;;;1.87;59.29;101480.87;4424547;32;19996;-89
2022/03/15 02:49:28;;;;;;;;;;;;;;;1.78;59.28;101476.34;4424864;32;20004;-89
2022/03/15 02:51:53;;;;;;;;;;;;;;;1.89;59.28;101481.78;4437317;32;29717;-89
2022/03/15 02:54:19;;;;;;;;;;;;;;;1.89;59.28;101480.09;4438698;32;19978;-89
2022/03/15 02:56:44;;;;;;;;;;;;;;;2.06;59.29;101489.19;4424863;32;19996;-88
2022/03/15 02:59:10;;;;;;;;;;;;;;;1.70;59.27;101488.09;4424928;32;20012;-88
2022/03/15 03:01:35;;;;;;;;;;;;;;;1.78;59.28;101482.34;4437896;32;20041;-88
2022/03/15 03:04:01;;;;;;;;;;;;;;;1.91;59.28;101486.19;4424882;32;19985;-88
2022/03/15 03:06:27;;;;;;;;;;;;;;;1.73;59.28;101483.03;4424663;32;19989;-87
2022/03/15 03:08:52;;;;;;;;;;;;;;;1.64;59.28;101482.72;4437796;32;20000;-89
2022/03/15 03:11:17;;;;;;;;;;;;;;;1.76;59.27;101485.69;4437712;32;20314;-90
2022/03/15 03:13:44;;;;;;;;;;;;;;;1.79;59.28;101476.38;4424993;32;20023;-89
2022/03/15 03:16:10;;;;;;;;;;;;;;;1.67;59.27;101481.16;4437608;32;20266;-89
2022/03/15 03:18:35;;;;;;;;;;;;;;;1.66;59.27;101484.56;4437728;32;19990;-85
2022/03/15 03:21:01;;;;;;;;;;;;;;;1.73;59.28;101471.06;4424602;32;20004;-86
2022/03/15 03:23:27;;;;;;;;;;;;;;;1.83;59.28;101477.34;4437485;32;19981;-87
2022/03/15 03:25:52;;;;;;;;;;;;;;;1.81;59.28;101476.44;4437717;32;19978;-90
2022/03/15 03:28:18;;;;;;;;;;;;;;;1.52;59.27;101478.09;4437003;32;23220;-88
2022/03/15 03:30:46;;;;;;;;;;;;;;;1.57;59.27;101475.66;4437283;32;19997;-86
2022/03/15 03:33:12;;;;;;;;;;;;;;;1.60;59.27;101474.06;4424507;32;19994;-86
2022/03/15 03:35:38;;;;;;;;;;;;;;;1.63;59.26;101470.72;4424415;32;19985;-86
2022/03/15 03:38:05;;;;;;;;;;;;;;;1.61;59.27;101475.81;4424389;32;20314;-86
2022/03/15 03:40:30;;;;;;;;;;;;;;;1.56;59.27;101482.50;4424281;32;19989;-86
2022/03/15 03:42:55;;;;;;;;;;;;;;;1.69;59.27;101487.22;4423911;32;28855;-89
2022/03/15 03:45:21;;;;;;;;;;;;;;;1.84;59.29;101494.50;4424426;32;19986;-87
2022/03/15 03:47:46;;;;;;;;;;;;;;;1.54;59.26;101486.72;4437397;32;19984;-88
2022/03/15 03:50:11;;;;;;;;;;;;;;;1.63;59.26;101480.97;4424334;32;20321;-88
2022/03/15 03:52:36;;;;;;;;;;;;;;;1.57;59.27;101479.09;4424346;32;20000;-88
2022/03/15 03:55:02;;;;;;;;;;;;;;;1.56;59.27;101489.31;4423267;32;20055;-87
2022/03/15 03:57:28;;;;;;;;;;;;;;;1.66;59.27;101491.37;4424311;32;19992;-86
2022/03/15 03:59:54;;;;;;;;;;;;;;;1.69;59.27;101491.47;4424323;32;20008;-88
2022/03/15 04:02:19;;;;;;;;;;;;;;;1.75;59.28;101496.78;4424362;32;19997;-88
2022/03/15 04:04:44;;;;;;;;;;;;;;;1.63;59.26;101496.38;4424354;32;19993;-88
2022/03/15 04:07:10;;;;;;;;;;;;;;;1.66;59.27;101488.81;4436674;32;19973;-87
2022/03/15 04:09:35;;;;;;;;;;;;;;;1.66;59.27;101486.25;4423960;32;20066;-88
2022/03/15 04:12:03;;;;;;;;;;;;;;;1.73;59.28;101488.16;4424179;32;19982;-85
2022/03/15 04:14:29;;;;;;;;;;;;;;;1.76;59.27;101485.69;4424010;32;19977;-87
2022/03/15 04:16:54;;;;;;;;;;;;;;;1.74;59.27;101485.66;4423939;32;19965;-87
2022/03/15 04:19:20;;;;;;;;;;;;;;;1.72;59.28;101486.44;4436832;32;19993;-87
2022/03/15 04:21:45;;;;;;;;;;;;;;;1.60;59.27;101484.31;4436820;32;20290;-87
2022/03/15 04:24:11;;;;;;;;;;;;;;;1.48;59.25;101491.66;4436729;32;19985;-88
2022/03/15 04:26:36;;;;;;;;;;;;;;;1.38;59.25;101495.59;4423767;32;19985;-86
2022/03/15 04:29:01;;;;;;;;;;;;;;;1.44;59.26;101495.81;4437494;32;19990;-89
2022/03/15 04:31:27;;;;;;;;;;;;;;;1.33;59.24;101498.81;4423595;32;20001;-87
2022/03/15 04:33:52;;;;;;;;;;;;;;;1.32;59.25;101500.53;4423688;32;19981;-88
2022/03/15 04:36:17;;;;;;;;;;;;;;;1.26;59.25;101504.59;4436591;32;19973;-88
2022/03/15 04:38:42;;;;;;;;;;;;;;;1.28;59.25;101500.38;4423788;32;20005;-88
2022/03/15 04:41:08;;;;;;;;;;;;;;;1.21;59.25;101507.00;4423096;32;26429;-89
2022/03/15 04:43:33;;;;;;;;;;;;;;;1.11;59.24;101508.34;4436119;32;20024;-88
2022/03/15 04:45:58;;;;;;;;;;;;;;;1.27;59.25;101509.75;4436629;32;19974;-89
2022/03/15 04:48:24;;;;;;;;;;;;;;;1.34;59.26;101504.00;4436640;32;20004;-89
2022/03/15 04:50:49;;;;;;;;;;;;;;;1.12;59.24;101501.53;4423771;32;19973;-89
2022/03/15 04:53:14;;;;;;;;;;;;;;;1.17;59.25;101508.56;4436646;32;20015;-90
2022/03/15 04:55:40;;;;;;;;;;;;;;;1.13;59.24;101516.09;4423468;32;19980;-89
2022/03/15 04:58:05;;;;;;;;;;;;;;;1.11;59.24;101516.06;4436586;32;20021;-90
2022/03/15 05:00:30;;;;;;;;;;;;;;;1.08;59.24;101521.09;4423388;32;25924;-89
2022/03/15 05:02:55;;;;;;;;;;;;;;;1.15;59.24;101514.47;4423790;32;20013;-89
2022/03/15 05:05:21;;;;;;;;;;;;;;;1.02;59.23;101522.56;4423672;32;35897;-90
2022/03/15 05:07:46;;;;;;;;;;;;;;;0.90;59.23;101521.31;4425814;32;19989;-91
2022/03/15 05:12:56;;;;;;;;;;;;;;;1.01;59.23;101523.38;4439169;32;20044;-89
2022/03/15 05:15:21;;;;;;;;;;;;;;;1.08;59.24;101520.22;4426033;32;20428;-90
2022/03/15 05:17:46;;;;;;;;;;;;;;;1.14;59.24;101521.28;4438985;32;20017;-90
2022/03/15 05:20:12;;;;;;;;;;;;;;;1.19;59.25;101530.03;4425545;32;30412;-89
2022/03/15 05:22:37;;;;;;;;;;;;;;;1.20;59.24;101518.94;4426208;32;19985;-92
2022/03/15 05:25:02;;;;;;;;;;;;;;;1.30;59.25;101524.38;4426687;32;20239;-91
2022/03/15 05:27:28;;;;;;;;;;;;;;;1.12;59.24;101519.50;4440295;32;19989;-92
2022/03/15 05:29:53;;;;;;;;;;;;;;;1.14;59.24;101520.41;4426337;32;32482;-91
2022/03/15 05:32:18;;;;;;;;;;;;;;;1.33;59.26;101515.09;4439482;32;20007;-91
2022/03/15 05:34:44;;;;;;;;;;;;;;;1.28;59.25;101514.06;4426265;32;19978;-87
2022/03/15 05:37:09;;;;;;;;;;;;;;;1.45;59.26;101512.94;4438042;32;19993;-89
2022/03/15 05:39:35;;;;;;;;;;;;;;;1.60;59.26;101516.81;4424881;32;28206;-89
2022/03/15 05:42:00;;;;;;;;;;;;;;;1.80;59.28;101508.06;4425089;32;19996;-88
2022/03/15 05:44:26;;;;;;;;;;;;;;;1.74;59.28;101508.75;4425438;32;20048;-89
2022/03/15 05:46:51;;;;;;;;;;;;;;;1.97;59.29;101509.47;4425425;32;20056;-89
2022/03/15 05:49:16;;;;;;;;;;;;;;;1.97;59.29;101506.91;4425603;32;20003;-90
2022/03/15 05:51:42;;;;;;;;;;;;;;;1.92;59.29;101511.03;4425807;32;19986;-89
2022/03/15 05:54:08;;;;;;;;;;;;;;;1.98;59.29;101511.22;4425549;32;19990;-90
2022/03/15 05:56:34;;;;;;;;;;;;;;;2.07;59.30;101505.47;4426123;32;20003;-92
2022/03/15 05:58:59;;;;;;;;;;;;;;;2.10;59.30;101506.44;4440326;32;19994;-93
2022/03/15 06:01:24;;;;;;;;;;;;;;;2.13;59.31;101504.00;4425566;32;20343;-91
2022/03/15 06:03:49;;;;;;;;;;;;;;;2.31;59.31;101500.19;4425773;32;20310;-91
2022/03/15 06:06:15;;;;;;;;;;;;;;;2.51;59.33;101500.78;4438681;32;19996;-88
2022/03/15 06:08:41;;;;;;;;;;;;;;;2.71;59.33;101497.09;4433627;32;19993;-89
2022/03/15 06:11:07;;;;;;;;;;;;;;;3.04;59.35;101503.12;4437844;32;20337;-89
2022/03/15 06:13:32;;;;;;;;;;;;;;;3.15;59.36;101503.44;4425068;32;19996;-87
2022/03/15 06:15:57;;;;;;;;;;;;;;;3.20;59.36;101504.41;4424641;32;20013;-87
2022/03/15 06:18:22;;;;;;;;;;;;;;;3.32;59.37;101499.59;4436531;32;27614;-89
2022/03/15 06:20:48;;;;;;;;;;;;;;;3.44;59.37;101501.59;4424592;32;19997;-88
2022/03/15 06:23:15;;;;;;;;;;;;;;;3.43;59.37;101509.28;4424998;32;19994;-88
2022/03/15 06:25:40;;;;;;;;;;;;;;;3.69;59.39;101500.47;4424878;32;20014;-89
2022/03/15 06:28:05;;;;;;;;;;;;;;;3.94;59.40;101497.66;4424207;32;24564;-87
2022/03/15 06:30:30;;;;;;;;;;;;;;;4.11;59.42;101505.75;4436984;32;20060;-86
2022/03/15 06:32:56;;;;;;;;;;;;;;;4.10;59.41;101500.56;4437029;32;20016;-87
2022/03/15 06:35:21;;;;;;;;;;;;;;;4.32;59.43;101506.22;4440342;32;20353;-86
2022/03/15 06:37:47;;;;;;;;;;;;;;;4.56;59.44;101505.88;4440282;32;20007;-86
2022/03/15 06:40:16;;;;;;;;;;;;;;;4.85;59.45;101503.00;4440549;32;20026;-91
2022/03/15 06:43:18;;;;;;;;;;;;;;;5.08;59.46;101501.72;4426912;32;19973;-96
2022/03/15 06:51:31;;;;;;;;;;;;;;;5.44;59.49;101488.59;1018719;26;21317;-92
2022/03/15 06:53:56;;;;;;;;;;;;;;;5.67;59.50;101491.53;4439343;32;19991;-95
2022/03/15 06:56:57;;;;;;;;;;;;;;;5.77;59.51;101477.91;4424695;32;20263;-93
2022/03/15 06:59:28;;;;;;;;;;;;;;;5.96;59.52;101471.34;4424763;32;19997;-94
2022/03/15 07:05:27;;;;;;;;;;;;;;;6.21;59.54;101463.94;4408514;32;20632;-95
2022/03/15 07:08:06;;;;;;;;;;;;;;;6.43;59.55;101459.03;4412151;32;19965;-96
2022/03/15 07:10:31;;;;;;;;;;;;;;;6.68;59.56;101454.16;4436601;32;20343;-92
2022/03/15 07:12:57;;;;;;;;;;;;;;;6.81;59.58;101455.13;4437537;32;19996;-94
2022/03/15 07:18:19;;;;;;;;;;;;;;;6.91;59.58;101457.00;4426653;32;20125;-90
2022/03/15 07:23:54;;;;;;;;;;;;;;;7.26;59.60;101452.12;4412642;32;19990;-90
2022/03/15 07:26:19;;;;;;;;;;;;;;;7.39;59.61;101457.44;4434818;32;20292;-91
2022/03/15 07:28:45;;;;;;;;;;;;;;;7.56;59.61;101448.91;4435178;32;19993;-90
2022/03/15 07:31:10;;;;;;;;;;;;;;;7.64;59.62;101453.31;4433497;32;19990;-89
2022/03/15 07:33:35;;;;;;;;;;;;;;;7.77;59.63;101448.19;4435501;32;20036;-92
2022/03/15 07:36:01;;;;;;;;;;;;;;;7.92;59.63;101453.50;4435701;32;19992;-90
2022/03/15 07:38:27;;;;;;;;;;;;;;;8.12;59.64;101451.00;4436110;32;20013;-92
2022/03/15 07:41:00;;;;;;;;;;;;;;;8.23;59.65;101450.19;4437135;32;19982;-94
2022/03/15 07:43:26;;;;;;;;;;;;;;;8.41;59.66;101451.19;4435221;32;20374;-92
2022/03/15 07:45:54;;;;;;;;;;;;;;;8.49;59.66;101454.66;4423903;32;19993;-92
2022/03/15 07:48:20;;;;;;;;;;;;;;;8.68;59.68;101453.00;4437239;32;20031;-92
2022/03/15 07:51:03;;;;;;;;;;;;;;;8.95;59.68;101452.19;4436745;32;20267;-95
2022/03/15 07:53:41;;;;;;;;;;;;;;;9.15;59.70;101450.50;4435235;32;19985;-94
2022/03/15 07:56:08;;;;;;;;;;;;;;;9.27;59.72;101450.53;4433480;32;19977;-90
2022/03/15 07:58:34;;;;;;;;;;;;;;;9.39;59.71;101442.72;4434913;32;20020;-89
2022/03/15 08:00:59;;;;;;;;;;;;;;;9.63;59.72;101440.97;4434427;32;19997;-90
2022/03/15 08:03:24;;;;;;;;;;;;;;;9.73;59.74;101435.75;4434485;32;19985;-90
2022/03/15 08:05:50;;;;;;;;;;;;;;;10.00;59.75;101442.63;4434701;32;19982;-89
2022/03/15 08:08:15;;;;;;;;;;;;;;;10.10;59.76;101441.72;4422795;32;19997;-89
2022/03/15 08:10:41;;;;;;;;;;;;;;;10.16;59.77;101441.69;4433933;32;20001;-89
2022/03/15 08:13:06;;;;;;;;;;;;;;;10.42;59.78;101436.47;4433620;32;20033;-88
2022/03/15 08:15:31;;;;;;;;;;;;;;;10.34;59.77;101435.59;4409268;32;19982;-89
2022/03/15 08:17:57;;;;;;;;;;;;;;;10.52;59.77;101442.47;4408658;32;20001;-90
2022/03/15 08:20:23;;;;;;;;;;;;;;;10.77;59.80;101441.47;4408728;32;20031;-91
2022/03/15 08:22:48;;;;;;;;;;;;;;;10.94;59.81;101427.47;4408671;32;20813;-91
2022/03/15 08:25:13;;;;;;;;;;;;;;;11.25;59.82;101423.75;4434446;32;19986;-89
2022/03/15 08:27:39;;;;;;;;;;;;;;;11.27;59.82;101427.22;4434543;32;19990;-89
2022/03/15 08:30:04;;;;;;;;;;;;;;;11.46;59.84;101427.06;4433604;32;19993;-89
2022/03/15 08:32:29;;;;;;;;;;;;;;;11.56;59.83;101413.91;4420882;32;20292;-89
2022/03/15 08:34:55;;;;;;;;;;;;;;;11.83;59.86;101419.78;4433922;32;20338;-89
2022/03/15 08:37:20;;;;;;;;;;;;;;;11.75;59.84;101418.97;4433105;32;24337;-89
2022/03/15 08:39:45;;;;;;;;;;;;;;;11.91;59.86;101421.44;4433505;32;20017;-89
2022/03/15 08:42:11;;;;;;;;;;;;;;;11.92;59.86;101410.13;4434642;32;20030;-89
2022/03/15 08:44:36;;;;;;;;;;;;;;;12.17;59.88;101402.87;4435692;32;20021;-90
2022/03/15 08:47:02;;;;;;;;;;;;;;;12.32;59.88;101403.56;4435194;32;20005;-89
2022/03/15 08:49:27;;;;;;;;;;;;;;;12.47;59.89;101395.50;4409987;32;19974;-90
2022/03/15 08:51:52;;;;;;;;;;;;;;;12.52;59.89;101391.94;4422945;32;20251;-89
2022/03/15 08:54:18;;;;;;;;;;;;;;;12.43;59.89;101386.88;4423755;32;21185;-89
2022/03/15 08:56:44;;;;;;;;;;;;;;;12.75;59.91;101373.34;4410201;32;20046;-90
2022/03/15 08:59:12;;;;;;;;;;;;;;;13.00;59.92;101367.72;4410063;32;19982;-89
2022/03/15 09:01:37;;;;;;;;;;;;;;;13.24;59.93;101369.97;4410413;32;20053;-90
2022/03/15 09:04:03;;;;;;;;;;;;;;;13.35;59.94;101375.03;4409882;32;19966;-88
2022/03/15 09:06:28;;;;;;;;;;;;;;;13.50;59.95;101373.00;4410084;32;19997;-90
2022/03/15 09:08:53;;;;;;;;;;;;;;;13.61;59.95;101367.56;4410326;32;19981;-89
2022/03/15 09:11:19;;;;;;;;;;;;;;;13.73;59.96;101364.72;4421846;32;20045;-89
2022/03/15 09:13:44;;;;;;;;;;;;;;;13.69;59.96;101364.78;4421412;32;19969;-89
2022/03/15 09:16:10;;;;;;;;;;;;;;;13.87;59.97;101356.59;4421692;32;20318;-88
2022/03/15 09:18:35;;;;;;;;;;;;;;;13.94;59.98;101352.09;4408501;32;19994;-90
2022/03/15 09:21:01;;;;;;;;;;;;;;;14.14;59.98;101347.31;4421556;32;19997;-87
2022/03/15 09:23:26;;;;;;;;;;;;;;;14.36;60.00;101345.09;4408530;32;19997;-87
2022/03/15 09:25:51;;;;;;;;;;;;;;;14.40;60.00;101344.12;4422703;32;20485;-86
2022/03/15 09:28:17;;;;;;;;;;;;;;;14.61;60.01;101332.31;4421051;32;20021;-86
2022/03/15 09:30:45;;;;;;;;;;;;;;;14.61;60.01;101334.94;4409246;32;20006;-86
2022/03/15 09:33:10;;;;;;;;;;;;;;;14.66;60.01;101323.44;4409632;32;20298;-85
2022/03/15 09:35:35;;;;;;;;;;;;;;;14.67;60.01;101321.72;4423209;32;19981;-86
2022/03/15 09:38:01;;;;;;;;;;;;;;;14.91;60.02;101318.50;4409912;32;20020;-86
2022/03/15 09:40:26;;;;;;;;;;;;;;;15.08;60.02;101318.03;4409825;32;20036;-87
2022/03/15 09:42:55;;;;;;;;;;;;;;;15.45;60.05;101315.34;4423752;32;20008;-86
2022/03/15 09:45:21;;;;;;;;;;;;;;;15.54;60.07;101304.56;4409823;32;19997;-87
2022/03/15 09:47:46;;;;;;;;;;;;;;;15.64;60.07;101311.34;4409610;32;20075;-85
2022/03/15 09:50:12;;;;;;;;;;;;;;;15.76;60.07;101301.37;4422415;32;19987;-85
2022/03/15 09:52:39;;;;;;;;;;;;;;;15.98;60.08;101310.34;4406468;32;19982;-88
2022/03/15 09:55:04;;;;;;;;;;;;;;;16.01;60.09;101312.03;4421233;32;20012;-86
2022/03/15 09:57:30;;;;;;;;;;;;;;;16.22;60.09;101301.75;4423801;32;19974;-92
2022/03/15 09:59:56;;;;;;;;;;;;;;;16.27;60.10;101301.59;4435652;32;19993;-89
2022/03/15 10:02:22;;;;;;;;;;;;;;;16.33;60.11;101304.06;4435257;32;20001;-89
2022/03/15 10:04:48;;;;;;;;;;;;;;;16.42;60.11;101300.25;4435389;32;20339;-88
2022/03/15 10:07:14;;;;;;;;;;;;;;;16.38;60.11;101291.63;4434909;32;20248;-88
2022/03/15 10:09:40;;;;;;;;;;;;;;;16.64;60.12;101290.78;4435317;32;19992;-89
2022/03/15 10:12:05;;;;;;;;;;;;;;;16.87;60.13;101293.56;4435196;32;19982;-89
2022/03/15 10:14:41;;;;;;;;;;;;;;;16.88;60.13;101295.28;4435398;32;19982;-89
2022/03/15 10:17:06;;;;;;;;;;;;;;;16.98;60.14;101295.81;4424083;32;19990;-89
2022/03/15 10:19:31;;;;;;;;;;;;;;;17.26;60.16;101289.59;4434773;32;19977;-87
2022/03/15 10:21:57;;;;;;;;;;;;;;;17.63;60.18;101284.72;4434999;32;20028;-88
2022/03/15 10:24:23;;;;;;;;;;;;;;;17.59;60.17;101280.50;4434873;32;20001;-88
2022/03/15 10:26:48;;;;;;;;;;;;;;;17.55;60.17;101272.78;4423640;32;20353;-88
2022/03/15 10:29:14;;;;;;;;;;;;;;;17.31;60.16;101288.53;4434988;32;20271;-88
2022/03/15 10:31:39;;;;;;;;;;;;;;;17.50;60.17;101279.03;4434964;32;20378;-88
2022/03/15 10:34:05;;;;;;;;;;;;;;;17.62;60.18;101272.50;4435033;32;20005;-89
2022/03/15 10:36:43;;;;;;;;;;;;;;;17.78;60.19;101259.66;4423712;32;19982;-88
2022/03/15 10:39:09;;;;;;;;;;;;;;;17.81;60.19;101258.66;4434664;32;20000;-90
2022/03/15 10:41:46;;;;;;;;;;;;;;;17.87;60.20;101251.38;4409610;32;20311;-91
2022/03/15 10:44:19;;;;;;;;;;;;;;;18.07;60.20;101240.94;4409081;32;20329;-88
2022/03/15 10:46:44;;;;;;;;;;;;;;;18.21;60.20;101236.87;4406543;32;20008;-86
2022/03/15 10:49:09;;;;;;;;;;;;;;;18.27;60.21;101237.50;4408959;32;19978;-89
2022/03/15 10:51:48;;;;;;;;;;;;;;;18.34;60.21;101228.44;4420749;32;20001;-90
2022/03/15 10:54:14;;;;;;;;;;;;;;;18.54;60.22;101221.50;4409196;32;20036;-89
2022/03/15 10:56:40;;;;;;;;;;;;;;;18.64;60.24;101217.56;4408685;32;19985;-90
2022/03/15 10:59:06;;;;;;;;;;;;;;;18.83;60.23;101215.00;4421267;32;19986;-91
2022/03/15 11:01:35;;;;;;;;;;;;;;;18.80;60.24;101207.22;4421666;32;19981;-88
2022/03/15 11:04:01;;;;;;;;;;;;;;;18.66;60.23;101202.53;4408970;32;20002;-90
2022/03/15 11:06:27;;;;;;;;;;;;;;;18.70;60.24;101196.22;4409703;32;20010;-92
2022/03/15 11:08:52;;;;;;;;;;;;;;;18.85;60.24;101182.34;4410276;32;19992;-91
2022/03/15 11:11:25;;;;;;;;;;;;;;;18.93;60.25;101176.78;4409356;32;19989;-91
2022/03/15 11:13:50;;;;;;;;;;;;;;;19.05;60.25;101176.22;4409735;32;20044;-89
2022/03/15 11:16:16;;;;;;;;;;;;;;;19.02;60.25;101171.06;4421568;32;20013;-87
2022/03/15 11:18:42;;;;;;;;;;;;;;;18.83;60.25;101159.59;4409396;32;20335;-86
2022/03/15 11:21:10;;;;;;;;;;;;;;;19.13;60.26;101155.59;4421254;32;27135;-88
2022/03/15 11:23:36;;;;;;;;;;;;;;;19.25;60.27;101148.91;4423193;32;20032;-86
2022/03/15 11:26:05;;;;;;;;;;;;;;;19.37;60.26;101140.44;4408948;32;20006;-85
2022/03/15 11:28:31;;;;;;;;;;;;;;;19.56;60.28;101137.81;4409006;32;19973;-85
2022/03/15 11:30:56;;;;;;;;;;;;;;;19.69;60.29;101131.03;4409137;32;20267;-85
2022/03/15 11:33:22;;;;;;;;;;;;;;;19.52;60.27;101123.88;4422883;32;20319;-84
2022/03/15 11:35:47;;;;;;;;;;;;;;;19.60;60.29;101113.81;4423055;32;19996;-85
2022/03/15 11:38:13;;;;;;;;;;;;;;;19.60;60.29;101108.53;4421499;32;19990;-84
2022/03/15 11:40:38;;;;;;;;;;;;;;;19.78;60.29;101100.66;4408021;32;19981;-85
2022/03/15 11:43:08;;;;;;;;;;;;;;;19.98;60.30;101100.53;4422339;32;20300;-85
2022/03/15 11:45:35;;;;;;;;;;;;;;;20.09;60.31;101094.72;4422667;32;20012;-85
2022/03/15 11:48:10;;;;;;;;;;;;;;;20.15;60.32;101095.28;4407778;32;20040;-87
2022/03/15 11:50:38;;;;;;;;;;;;;;;20.12;60.31;101086.66;4422591;32;20347;-86
2022/03/15 11:53:15;;;;;;;;;;;;;;;20.10;60.31;101084.06;4420780;32;20092;-87
2022/03/15 11:55:49;;;;;;;;;;;;;;;20.24;60.32;101054.28;4408369;32;20012;-85
2022/03/15 11:58:29;;;;;;;;;;;;;;;20.33;60.32;101050.31;4408364;32;19985;-86
2022/03/15 12:00:58;;;;;;;;;;;;;;;20.29;60.33;101041.69;4434048;32;20036;-89
2022/03/15 12:03:23;;;;;;;;;;;;;;;20.24;60.32;101033.13;4420374;32;20622;-88
2022/03/15 12:05:53;;;;;;;;;;;;;;;20.13;60.31;101040.78;4405769;32;20045;-86
2022/03/15 12:08:20;;;;;;;;;;;;;;;20.29;60.32;101032.91;4422275;32;19974;-87
2022/03/15 12:10:47;;;;;;;;;;;;;;;20.38;60.32;101028.00;4408164;32;19966;-87
2022/03/15 12:13:14;;;;;;;;;;;;;;;20.54;60.33;101020.13;4421481;32;20270;-87
2022/03/15 12:15:42;;;;;;;;;;;;;;;20.52;60.33;101006.13;4422363;32;20047;-88
2022/03/15 12:21:06;;;;;;;;;;;;;;;20.44;60.33;101006.53;4424252;32;19973;-88
2022/03/15 12:23:38;;;;;;;;;;;;;;;20.35;60.32;101008.81;4423965;32;19986;-87
2022/03/15 12:26:03;;;;;;;;;;;;;;;20.38;60.33;100993.63;4410160;32;20023;-89
2022/03/15 12:28:29;;;;;;;;;;;;;;;20.52;60.33;100991.12;4410096;32;19997;-87
2022/03/15 12:31:02;;;;;;;;;;;;;;;20.64;60.34;100996.69;4424484;32;19983;-86
2022/03/15 12:33:27;;;;;;;;;;;;;;;20.55;60.34;100984.81;4422902;32;20052;-86
2022/03/15 12:36:01;;;;;;;;;;;;;;;20.67;60.34;100989.44;4435635;32;19998;-86
2022/03/15 12:38:33;;;;;;;;;;;;;;;20.78;60.35;100988.84;4423807;32;20042;-87
2022/03/15 12:41:01;;;;;;;;;;;;;;;20.90;60.35;100985.53;4423835;32;19970;-87
2022/03/15 12:43:26;;;;;;;;;;;;;;;20.96;60.36;100974.59;4409938;32;19989;-87
2022/03/15 12:45:51;;;;;;;;;;;;;;;21.12;60.37;100974.62;4422293;32;20012;-86
2022/03/15 12:48:17;;;;;;;;;;;;;;;20.91;60.35;100973.16;4408670;32;20361;-86
2022/03/15 12:50:42;;;;;;;;;;;;;;;20.97;60.35;100968.38;4409927;32;19986;-87
2022/03/15 12:53:12;;;;;;;;;;;;;;;21.09;60.37;100964.19;4409571;32;20025;-87
2022/03/15 12:55:38;;;;;;;;;;;;;;;20.96;60.35;100953.44;4410012;32;20009;-88
2022/03/15 12:58:09;;;;;;;;;;;;;;;21.00;60.37;100947.03;4409627;32;19996;-88
2022/03/15 13:00:35;;;;;;;;;;;;;;;20.98;60.36;100937.47;4422387;32;20047;-88